Time;durP1;ratioP1;P1;durP2;ratioP2;P2;SDS_P1;SDS_P2;PMS_P1;PMS_P2;Temp;Humidity;BMP_temperature;BMP_pressure;BME280_temperature;BME280_humidity;BME280_pressure;Samples;Min_cycle;Max_cycle;Signal;HPM_P1;HPM_P2
2022/08/27 00:02:00;;;;;;;14.30;8.73;;;;;;;15.89;100.00;95251.94;5107747;28;20043;-77
2022/08/27 00:04:26;;;;;;;17.75;9.18;;;;;;;15.90;100.00;95253.47;5091739;28;20036;-78
2022/08/27 00:06:51;;;;;;;13.35;8.27;;;;;;;15.86;100.00;95252.53;5092429;28;20032;-77
2022/08/27 00:09:17;;;;;;;14.50;8.80;;;;;;;15.80;100.00;95259.84;5091454;28;20044;-77
2022/08/27 00:11:43;;;;;;;16.83;8.75;;;;;;;15.69;100.00;95248.72;5082736;28;20074;-77
2022/08/27 00:14:09;;;;;;;15.45;8.35;;;;;;;15.71;100.00;95257.16;5092463;28;20064;-77
2022/08/27 00:16:35;;;;;;;16.85;8.93;;;;;;;15.64;100.00;95267.44;5091717;28;20032;-77
2022/08/27 00:19:00;;;;;;;15.82;8.70;;;;;;;15.68;100.00;95252.47;5090319;28;20672;-77
2022/08/27 00:21:26;;;;;;;16.77;8.43;;;;;;;15.71;100.00;95257.16;5082247;28;20448;-77
2022/08/27 00:23:52;;;;;;;14.80;8.30;;;;;;;15.68;100.00;95272.91;5090977;28;20040;-77
2022/08/27 00:26:17;;;;;;;13.50;7.78;;;;;;;15.62;100.00;95284.75;5088523;28;20383;-77
2022/08/27 00:28:43;;;;;;;16.95;7.70;;;;;;;15.64;100.00;95293.94;5078793;28;20407;-76
2022/08/27 00:31:09;;;;;;;14.02;7.35;;;;;;;15.57;100.00;95293.59;5087546;28;20039;-76
2022/08/27 00:33:35;;;;;;;16.27;8.13;;;;;;;15.56;100.00;95292.06;5090603;28;20113;-76
2022/08/27 00:36:02;;;;;;;17.67;8.32;;;;;;;15.59;100.00;95291.44;5083152;28;20036;-76
2022/08/27 00:38:29;;;;;;;13.60;8.30;;;;;;;15.58;100.00;95292.53;5082619;28;20520;-76
2022/08/27 00:40:54;;;;;;;14.32;8.57;;;;;;;15.63;100.00;95281.78;5082059;28;20074;-76
2022/08/27 00:43:41;;;;;;;16.02;9.30;;;;;;;15.69;100.00;95288.53;5079868;28;20487;-76
2022/08/27 00:46:18;;;;;;;13.60;8.15;;;;;;;15.76;100.00;95275.59;5090880;28;20040;-76
2022/08/27 00:48:44;;;;;;;19.38;9.23;;;;;;;15.81;100.00;95287.19;5086394;28;20040;-76
2022/08/27 00:51:10;;;;;;;15.45;9.15;;;;;;;15.75;100.00;95284.63;5077258;28;20332;-76
2022/08/27 00:53:35;;;;;;;14.68;8.80;;;;;;;15.84;100.00;95275.94;5088681;28;20123;-76
2022/08/27 00:56:11;;;;;;;15.90;8.38;;;;;;;15.94;100.00;95273.00;5089501;28;20040;-76
2022/08/27 00:58:40;;;;;;;18.17;8.82;;;;;;;15.85;100.00;95277.53;5089958;28;20036;-76
2022/08/27 01:01:10;;;;;;;14.18;9.05;;;;;;;15.93;100.00;95279.41;5079774;28;20050;-76
2022/08/27 01:03:36;;;;;;;15.45;8.68;;;;;;;15.90;100.00;95275.50;5088711;28;20044;-76
2022/08/27 01:06:04;;;;;;;17.85;9.38;;;;;;;15.92;100.00;95272.53;5089823;28;20040;-76
2022/08/27 01:08:37;;;;;;;17.80;9.90;;;;;;;15.94;100.00;95265.81;5087717;28;20036;-76
2022/08/27 01:11:03;;;;;;;17.83;9.30;;;;;;;15.95;100.00;95271.91;5080904;28;20043;-76
2022/08/27 01:13:32;;;;;;;15.20;8.13;;;;;;;15.95;100.00;95266.63;5083895;28;20036;-76
2022/08/27 01:15:58;;;;;;;15.90;8.93;;;;;;;15.97;100.00;95264.41;5089767;28;20059;-76
2022/08/27 01:18:26;;;;;;;17.33;8.65;;;;;;;15.84;100.00;95258.16;5090254;28;20051;-75
2022/08/27 01:21:00;;;;;;;18.23;8.70;;;;;;;15.80;100.00;95246.59;5087161;28;20085;-76
2022/08/27 01:23:35;;;;;;;13.43;8.55;;;;;;;15.79;100.00;95258.31;5088025;28;20105;-75
2022/08/27 01:26:03;;;;;;;14.55;9.00;;;;;;;15.72;100.00;95257.94;5090623;28;20098;-77
2022/08/27 01:28:30;;;;;;;17.33;9.07;;;;;;;15.72;100.00;95253.41;5088204;28;20109;-76
2022/08/27 01:30:56;;;;;;;16.02;9.18;;;;;;;15.68;100.00;95255.13;5081202;28;20028;-76
2022/08/27 01:33:22;;;;;;;16.30;9.18;;;;;;;15.66;100.00;95254.66;5084897;28;20036;-76
2022/08/27 01:35:50;;;;;;;20.33;9.85;;;;;;;15.71;100.00;95251.84;5088782;28;20097;-76
2022/08/27 01:38:17;;;;;;;15.45;8.82;;;;;;;15.75;100.00;95260.75;5086051;28;20040;-75
2022/08/27 01:40:44;;;;;;;20.67;10.10;;;;;;;15.84;100.00;95255.50;5085392;28;20043;-76
2022/08/27 01:43:10;;;;;;;16.10;8.88;;;;;;;15.85;100.00;95261.59;5086160;28;20293;-76
2022/08/27 01:45:38;;;;;;;18.67;9.63;;;;;;;15.93;100.00;95263.47;5089409;28;20512;-75
2022/08/27 01:48:06;;;;;;;15.18;8.57;;;;;;;15.97;100.00;95268.97;5088211;28;20501;-75
2022/08/27 01:50:36;;;;;;;18.67;9.65;;;;;;;15.97;100.00;95268.97;5082576;28;20491;-75
2022/08/27 01:53:05;;;;;;;15.55;9.18;;;;;;;15.91;100.00;95270.97;5083394;28;20036;-75
2022/08/27 01:55:31;;;;;;;17.15;9.70;;;;;;;15.98;100.00;95266.00;5087387;28;20032;-76
2022/08/27 01:57:56;;;;;;;19.27;9.13;;;;;;;16.08;100.00;95265.69;5087946;28;20039;-76
2022/08/27 02:00:28;;;;;;;17.23;9.38;;;;;;;16.11;100.00;95265.06;5088474;28;20097;-76
2022/08/27 02:02:55;;;;;;;17.73;9.40;;;;;;;16.16;100.00;95263.34;5085126;28;20059;-77
2022/08/27 02:05:22;;;;;;;21.08;9.82;;;;;;;16.16;100.00;95260.69;5082267;28;20503;-77
2022/08/27 02:07:48;;;;;;;16.98;9.80;;;;;;;16.15;100.00;95270.56;5086550;28;20058;-76
2022/08/27 02:10:18;;;;;;;20.13;10.13;;;;;;;16.16;100.00;95261.50;5088760;28;20113;-76
2022/08/27 02:12:44;;;;;;;20.08;9.82;;;;;;;16.21;100.00;95269.31;5086215;28;20036;-75
2022/08/27 02:15:11;;;;;;;21.58;9.63;;;;;;;16.18;100.00;95269.16;5087651;28;20044;-75
2022/08/27 02:17:37;;;;;;;17.77;10.00;;;;;;;16.17;100.00;95262.28;5087901;28;20032;-75
2022/08/27 02:20:05;;;;;;;20.02;9.98;;;;;;;16.22;100.00;95262.91;5076063;28;20050;-75
2022/08/27 02:22:31;;;;;;;17.88;9.40;;;;;;;16.24;100.00;95260.72;5087527;28;20062;-76
2022/08/27 02:24:56;;;;;;;16.33;9.35;;;;;;;16.20;100.00;95257.09;5082748;28;20037;-76
2022/08/27 02:27:22;;;;;;;19.38;9.30;;;;;;;16.25;100.00;95253.53;5088408;28;20040;-76
2022/08/27 02:29:50;;;;;;;17.98;8.82;;;;;;;16.27;100.00;95251.34;5081665;28;20044;-75
2022/08/27 02:32:16;;;;;;;17.75;9.13;;;;;;;16.23;100.00;95251.19;5086697;28;20405;-75
2022/08/27 02:34:41;;;;;;;14.90;8.80;;;;;;;16.19;100.00;95249.47;5083742;28;20068;-76
2022/08/27 02:37:07;;;;;;;17.33;9.63;;;;;;;16.23;100.00;95253.84;5085347;28;20055;-76
2022/08/27 02:39:33;;;;;;;17.10;9.35;;;;;;;16.25;100.00;95242.94;5084976;28;20079;-76
2022/08/27 02:41:58;;;;;;;15.48;8.38;;;;;;;16.24;100.00;95242.13;5087119;28;20037;-76
2022/08/27 02:44:24;;;;;;;16.80;9.23;;;;;;;16.27;100.00;95235.41;5081146;28;20089;-76
2022/08/27 02:46:49;;;;;;;15.90;8.65;;;;;;;16.17;100.00;95241.03;5085611;28;20494;-76
2022/08/27 02:49:16;;;;;;;15.20;8.73;;;;;;;16.20;100.00;95235.09;5098787;28;20052;-76
2022/08/27 02:51:42;;;;;;;14.80;8.60;;;;;;;16.20;100.00;95229.78;5083058;28;20433;-76
2022/08/27 02:54:07;;;;;;;19.98;9.18;;;;;;;16.21;100.00;95234.00;5086121;28;20037;-76
2022/08/27 02:56:33;;;;;;;15.43;8.65;;;;;;;16.28;100.00;95237.00;5081003;28;20067;-76
2022/08/27 02:58:59;;;;;;;16.05;8.38;;;;;;;16.29;100.00;95233.22;5072718;28;20528;-77
2022/08/27 03:01:24;;;;;;;15.93;7.95;;;;;;;16.27;100.00;95230.09;5084954;28;20051;-76
2022/08/27 03:03:50;;;;;;;11.90;7.25;;;;;;;16.28;100.00;95231.69;5088092;28;20488;-77
2022/08/27 03:06:15;;;;;;;12.88;6.88;;;;;;;16.30;100.00;95240.09;5085365;28;20041;-77
2022/08/27 03:08:41;;;;;;;13.60;6.55;;;;;;;16.25;100.00;95242.94;5080439;28;20116;-77
2022/08/27 03:11:07;;;;;;;13.57;6.40;;;;;;;16.27;100.00;95240.72;5083858;28;20043;-76
2022/08/27 03:13:39;;;;;;;11.23;6.35;;;;;;;16.24;100.00;95242.13;5081596;28;20562;-76
2022/08/27 03:16:06;;;;;;;9.15;5.70;;;;;;;16.27;100.00;95235.41;5074661;28;20040;-77
2022/08/27 03:18:32;;;;;;;11.73;6.13;;;;;;;16.24;100.00;95242.13;5087813;28;20411;-76
2022/08/27 03:20:59;;;;;;;12.18;6.65;;;;;;;16.18;100.00;95242.59;5085007;28;20066;-77
2022/08/27 03:23:28;;;;;;;14.05;6.70;;;;;;;16.19;100.00;95238.84;5085698;28;20520;-76
2022/08/27 03:25:56;;;;;;;13.52;6.25;;;;;;;16.09;100.00;95232.75;5088643;28;20048;-77
2022/08/27 03:28:26;;;;;;;14.52;6.50;;;;;;;16.09;100.00;95246.03;5084318;28;20036;-77
2022/08/27 03:30:54;;;;;;;13.10;6.50;;;;;;;16.08;100.00;95249.75;5078434;28;20047;-76
2022/08/27 03:33:21;;;;;;;9.30;5.65;;;;;;;16.03;100.00;95247.28;5087278;28;20082;-77
2022/08/27 03:35:47;;;;;;;9.45;5.93;;;;;;;16.07;100.00;95247.41;5090689;28;20186;-77
2022/08/27 03:38:13;;;;;;;11.88;6.50;;;;;;;16.09;100.00;95251.34;5088919;28;20058;-77
2022/08/27 03:40:40;;;;;;;10.55;6.13;;;;;;;16.07;100.00;95253.50;5090562;28;20051;-77
2022/08/27 03:43:05;;;;;;;11.50;6.00;;;;;;;16.05;100.00;95253.03;5080932;28;20417;-77
2022/08/27 03:45:30;;;;;;;9.50;5.93;;;;;;;16.10;100.00;95250.25;5091846;28;20036;-75
2022/08/27 03:47:56;;;;;;;10.35;5.68;;;;;;;16.13;100.00;95246.16;5090689;28;20048;-76
2022/08/27 03:50:22;;;;;;;9.25;5.63;;;;;;;16.25;100.00;95253.53;5091462;28;20107;-75
2022/08/27 03:52:47;;;;;;;12.48;5.82;;;;;;;16.25;100.00;95253.53;5088922;28;20046;-75
2022/08/27 03:55:14;;;;;;;11.40;5.65;;;;;;;16.22;100.00;95248.84;5091662;28;20040;-75
2022/08/27 03:57:39;;;;;;;10.45;5.05;;;;;;;16.18;100.00;95243.38;5091359;28;20044;-75
2022/08/27 04:00:13;;;;;;;8.60;5.38;;;;;;;16.21;100.00;95247.28;5083602;28;20048;-76
2022/08/27 04:02:41;;;;;;;9.40;5.30;;;;;;;16.39;100.00;95243.56;5087160;28;20043;-75
2022/08/27 04:05:09;;;;;;;12.55;5.10;;;;;;;16.51;100.00;95244.81;5083044;28;20119;-76
2022/08/27 04:07:34;;;;;;;7.82;4.95;;;;;;;16.54;100.00;95244.16;5089847;28;20032;-75
2022/08/27 04:10:00;;;;;;;8.60;4.57;;;;;;;16.49;100.00;95246.97;5082967;28;20528;-75
2022/08/27 04:12:25;;;;;;;8.45;4.72;;;;;;;16.53;100.00;95253.22;5085813;28;20063;-75
2022/08/27 04:14:51;;;;;;;9.30;4.97;;;;;;;16.44;100.00;95258.53;5089795;28;20418;-75
2022/08/27 04:17:17;;;;;;;8.82;5.18;;;;;;;16.54;100.00;95254.78;5091357;28;20032;-75
2022/08/27 04:19:42;;;;;;;9.23;5.50;;;;;;;16.58;100.00;95266.38;5088429;28;20675;-75
2022/08/27 04:22:08;;;;;;;8.35;4.80;;;;;;;16.57;100.00;95254.94;5086392;28;20051;-76
2022/08/27 04:24:35;;;;;;;9.38;4.75;;;;;;;16.56;100.00;95255.25;5089257;28;20047;-76
2022/08/27 04:27:02;;;;;;;10.15;6.47;;;;;;;16.55;100.00;95262.44;5090732;28;20044;-76
2022/08/27 04:29:27;;;;;;;8.50;5.40;;;;;;;16.56;100.00;95263.22;5078427;28;20051;-76
2022/08/27 04:31:54;;;;;;;7.43;5.07;;;;;;;16.51;100.00;95266.06;5089901;28;20032;-76
2022/08/27 04:34:20;;;;;;;9.48;5.40;;;;;;;16.48;100.00;95266.66;5087689;28;20032;-76
2022/08/27 04:36:46;;;;;;;7.82;4.90;;;;;;;16.43;100.00;95271.06;5090334;28;20074;-77
2022/08/27 04:39:13;;;;;;;7.88;5.18;;;;;;;16.37;100.00;95266.97;5088606;28;20390;-77
2022/08/27 04:41:38;;;;;;;8.73;5.40;;;;;;;16.36;100.00;95265.41;5084481;28;20564;-76
2022/08/27 04:44:07;;;;;;;9.43;5.32;;;;;;;16.47;100.00;95265.09;5085263;28;20112;-77
2022/08/27 04:46:36;;;;;;;7.35;4.68;;;;;;;16.49;100.00;95262.91;5077734;28;20090;-76
2022/08/27 04:49:09;;;;;;;8.40;4.75;;;;;;;16.48;100.00;95261.34;5090169;28;20124;-76
2022/08/27 04:51:35;;;;;;;8.05;4.60;;;;;;;16.42;100.00;95264.16;5089885;28;20048;-76
2022/08/27 04:54:02;;;;;;;8.65;4.95;;;;;;;16.45;100.00;95268.84;5090475;28;20047;-76
2022/08/27 04:56:28;;;;;;;7.90;4.93;;;;;;;16.36;100.00;95270.72;5086146;28;20109;-75
2022/08/27 04:58:54;;;;;;;10.13;4.57;;;;;;;16.38;100.00;95279.16;5079581;28;20040;-74
2022/08/27 05:01:23;;;;;;;8.07;4.10;;;;;;;16.47;100.00;95281.03;5081643;28;20040;-75
2022/08/27 05:03:49;;;;;;;8.45;4.53;;;;;;;16.44;100.00;95277.91;5086505;28;20048;-75
2022/08/27 05:06:16;;;;;;;7.85;4.53;;;;;;;16.44;100.00;95288.53;5089362;28;20039;-75
2022/08/27 05:08:41;;;;;;;7.68;4.38;;;;;;;16.42;100.00;95280.09;5086766;28;20036;-76
2022/08/27 05:11:09;;;;;;;8.65;4.53;;;;;;;16.44;100.00;95277.91;5087619;28;20448;-75
2022/08/27 05:13:36;;;;;;;6.65;4.40;;;;;;;16.39;100.00;95278.06;5088140;28;20097;-75
2022/08/27 05:16:05;;;;;;;8.50;4.68;;;;;;;16.42;100.00;95274.78;5088749;28;20051;-75
2022/08/27 05:18:32;;;;;;;6.70;4.53;;;;;;;16.38;100.00;95279.16;5082298;28;20093;-75
2022/08/27 05:20:57;;;;;;;10.48;4.38;;;;;;;16.42;100.00;95274.00;5085352;28;20040;-76
2022/08/27 05:23:23;;;;;;;9.23;4.90;;;;;;;16.51;100.00;95276.69;5086538;28;20032;-76
2022/08/27 05:25:51;;;;;;;6.93;4.15;;;;;;;16.48;100.00;95278.06;5089798;28;20048;-76
2022/08/27 05:28:21;;;;;;;6.85;4.03;;;;;;;16.51;100.00;95282.00;5087588;28;20067;-76
2022/08/27 05:30:49;;;;;;;8.75;4.13;;;;;;;16.57;100.00;95278.06;5083560;28;20044;-76
2022/08/27 05:33:23;;;;;;;6.55;4.20;;;;;;;16.48;100.00;95277.28;5087383;28;20515;-76
2022/08/27 05:35:52;;;;;;;8.05;4.25;;;;;;;16.50;100.00;95275.09;5087969;28;20043;-75
2022/08/27 05:38:18;;;;;;;6.85;4.28;;;;;;;16.58;100.00;95266.38;5083428;28;20508;-75
2022/08/27 05:40:46;;;;;;;6.22;4.20;;;;;;;16.54;100.00;95270.72;5086817;28;20044;-76
2022/08/27 05:43:14;;;;;;;6.65;4.28;;;;;;;16.62;100.00;95273.38;5083379;28;20028;-74
2022/08/27 05:45:46;;;;;;;8.73;4.50;;;;;;;16.60;100.00;95269.47;5084736;28;20489;-75
2022/08/27 05:48:14;;;;;;;9.23;4.32;;;;;;;16.60;100.00;95272.13;5087082;28;20085;-74
2022/08/27 05:50:42;;;;;;;7.43;4.53;;;;;;;16.64;100.00;95273.06;5082948;28;20047;-75
2022/08/27 05:53:09;;;;;;;8.45;4.57;;;;;;;16.66;100.00;95267.44;5084437;28;20089;-76
2022/08/27 05:55:39;;;;;;;6.45;4.07;;;;;;;16.69;100.00;95278.22;5080301;28;20044;-77
2022/08/27 05:58:07;;;;;;;6.35;4.30;;;;;;;16.70;100.00;95277.13;5086593;28;20043;-78
2022/08/27 06:03:17;;;;;;;5.57;3.47;;;;;;;16.82;100.00;95286.34;5084964;28;20051;-77
2022/08/27 06:05:43;;;;;;;5.75;3.90;;;;;;;16.82;100.00;95281.03;5085675;28;20035;-78
2022/08/27 06:08:08;;;;;;;6.97;3.90;;;;;;;16.83;100.00;95277.28;5087668;28;20053;-77
2022/08/27 06:10:44;;;;;;;5.57;3.90;;;;;;;16.83;100.00;95271.97;5086105;28;20046;-79
2022/08/27 06:13:09;;;;;;;9.23;4.20;;;;;;;16.92;100.00;95280.72;5089946;28;20063;-77
2022/08/27 06:15:35;;;;;;;9.68;4.07;;;;;;;16.98;100.00;95279.44;5086986;28;20498;-76
2022/08/27 06:18:00;;;;;;;5.65;3.80;;;;;;;17.06;100.00;95286.63;5091788;28;20047;-77
2022/08/27 06:20:26;;;;;;;5.82;3.90;;;;;;;17.06;100.00;95285.88;5082716;28;20455;-76
2022/08/27 06:22:52;;;;;;;5.80;3.95;;;;;;;17.11;100.00;95283.81;5091349;28;20040;-77
2022/08/27 06:25:17;;;;;;;7.25;3.90;;;;;;;17.08;100.00;95284.47;5088174;28;20044;-78
2022/08/27 06:27:42;;;;;;;8.30;3.63;;;;;;;17.22;100.00;95284.25;5087255;28;20068;-78
2022/08/27 06:30:09;;;;;;;6.03;4.03;;;;;;;17.26;100.00;95279.09;5090194;28;20036;-77
2022/08/27 06:32:34;;;;;;;5.53;4.00;;;;;;;17.33;100.00;95279.38;5093539;28;20036;-77
2022/08/27 06:34:59;;;;;;;7.35;4.10;;;;;;;17.40;100.00;95282.34;5092972;28;20039;-80
2022/08/27 06:37:26;;;;;;;8.43;4.60;;;;;;;17.56;100.00;95292.47;5084907;28;20090;-75
2022/08/27 06:39:51;;;;;;;7.03;4.20;;;;;;;17.64;100.00;95284.44;5087548;28;20612;-78
2022/08/27 06:42:17;;;;;;;6.30;4.40;;;;;;;17.58;100.00;95291.00;5086758;28;20115;-78
2022/08/27 06:44:42;;;;;;;6.70;4.50;;;;;;;17.64;100.00;95278.31;5086787;28;20059;-76
2022/08/27 06:47:08;;;;;;;8.43;5.47;;;;;;;17.75;100.00;95274.19;5088611;28;20044;-77
2022/08/27 06:49:37;;;;;;;8.15;5.60;;;;;;;17.74;100.00;95283.31;5082959;28;20040;-77
2022/08/27 06:52:02;;;;;;;11.50;5.72;;;;;;;17.78;100.00;95284.19;5083156;28;20040;-77
2022/08/27 06:54:28;;;;;;;10.23;6.20;;;;;;;17.82;100.00;95282.47;5087509;28;20044;-82
2022/08/27 06:56:57;;;;;;;8.77;5.80;;;;;;;17.87;100.00;95291.38;5093400;28;20071;-76
2022/08/27 06:59:23;;;;;;;9.05;5.63;;;;;;;17.90;100.00;95288.06;5088606;28;20052;-77
2022/08/27 07:01:50;;;;;;;10.32;6.35;;;;;;;17.93;100.00;95290.09;5088392;28;20582;-76
2022/08/27 07:04:19;;;;;;;9.10;5.70;;;;;;;17.98;100.00;95287.28;5079347;28;20047;-75
2022/08/27 07:06:44;;;;;;;9.63;5.88;;;;;;;18.02;100.00;95288.19;5094146;28;20040;-78
2022/08/27 07:09:10;;;;;;;11.35;6.70;;;;;;;17.99;100.00;95284.28;5088070;28;20105;-76
2022/08/27 07:11:37;;;;;;;9.70;6.50;;;;;;;17.92;100.00;95286.66;5090005;28;20058;-75
2022/08/27 07:14:04;;;;;;;11.93;6.60;;;;;;;17.89;100.00;95289.94;5094683;28;20063;-77
2022/08/27 07:16:30;;;;;;;11.73;6.50;;;;;;;17.92;100.00;95289.34;5091176;28;20032;-75
2022/08/27 07:18:58;;;;;;;10.85;6.47;;;;;;;17.99;100.00;95288.84;5092346;28;20120;-76
2022/08/27 07:21:25;;;;;;;11.23;7.03;;;;;;;18.07;100.00;95287.97;5096440;28;20655;-77
2022/08/27 07:23:52;;;;;;;12.57;7.05;;;;;;;18.16;100.00;95278.06;5090642;28;20051;-76
2022/08/27 07:26:20;;;;;;;12.32;7.55;;;;;;;18.15;100.00;95292.50;5092959;28;20146;-78
2022/08/27 07:28:47;;;;;;;12.20;7.28;;;;;;;18.07;100.00;95295.97;5095112;28;20441;-78
2022/08/27 07:31:18;;;;;;;13.20;7.88;;;;;;;18.11;100.00;95301.44;5097592;28;20039;-79
2022/08/27 07:33:44;;;;;;;11.45;7.43;;;;;;;18.04;100.00;95301.94;5098232;28;20039;-79
2022/08/27 07:36:10;;;;;;;11.52;6.35;;;;;;;18.12;100.00;95287.81;5109510;28;20043;-78
2022/08/27 07:38:36;;;;;;;12.65;6.47;;;;;;;18.26;100.00;95302.75;5086076;28;20498;-77
2022/08/27 07:41:06;;;;;;;10.88;6.53;;;;;;;18.29;100.00;95299.47;5085308;28;20054;-77
2022/08/27 07:46:16;;;;;;;10.27;5.70;;;;;;;18.23;100.00;95303.41;5098759;28;20050;-76
2022/08/27 07:48:41;;;;;;;9.38;5.53;;;;;;;18.22;100.00;95307.19;5091106;27;20064;-75
2022/08/27 07:51:13;;;;;;;8.32;5.60;;;;;;;18.18;100.00;95313.16;5091574;28;20032;-75
2022/08/27 07:53:39;;;;;;;7.43;4.95;;;;;;;18.24;100.00;95315.63;5092780;28;20040;-75
2022/08/27 07:56:06;;;;;;;8.70;5.18;;;;;;;18.27;100.00;95325.63;5091897;28;20047;-77
2022/08/27 07:58:33;;;;;;;9.10;5.32;;;;;;;18.30;100.00;95309.00;5088558;28;20032;-76
2022/08/27 08:00:58;;;;;;;9.73;5.30;;;;;;;18.26;100.00;95313.41;5083989;28;20032;-76
2022/08/27 08:03:24;;;;;;;8.60;5.38;;;;;;;18.39;100.00;95315.06;5098968;28;20044;-76
2022/08/27 08:05:52;;;;;;;8.95;5.95;;;;;;;18.42;100.00;95314.41;5103345;28;20101;-76
2022/08/27 08:08:18;;;;;;;9.07;5.95;;;;;;;18.42;100.00;95314.41;5092712;28;20493;-77
2022/08/27 08:10:44;;;;;;;7.90;5.45;;;;;;;18.51;100.00;95320.44;5087488;28;20032;-81
2022/08/27 08:13:09;;;;;;;8.93;5.75;;;;;;;18.33;100.00;95311.00;5083433;28;20106;-76
2022/08/27 08:15:36;;;;;;;11.00;5.85;;;;;;;18.42;100.00;95317.09;5081418;28;20079;-75
2022/08/27 08:18:02;;;;;;;10.43;5.72;;;;;;;18.66;100.00;95323.63;5087382;28;20119;-79
2022/08/27 08:20:28;;;;;;;9.55;5.93;;;;;;;18.57;100.00;95322.94;5089443;28;20828;-77
2022/08/27 08:22:53;;;;;;;8.60;5.53;;;;;;;18.56;100.00;95321.38;5087457;28;20062;-76
2022/08/27 08:25:19;;;;;;;8.40;5.78;;;;;;;18.50;100.00;95326.91;5087075;28;20036;-75
2022/08/27 08:27:44;;;;;;;9.50;5.20;;;;;;;18.41;100.00;95336.81;5092554;28;20043;-76
2022/08/27 08:30:10;;;;;;;10.50;5.47;;;;;;;18.40;100.00;95329.94;5083553;28;20080;-75
2022/08/27 08:32:36;;;;;;;9.38;4.93;;;;;;;18.40;100.00;95335.25;5087793;28;20036;-75
2022/08/27 08:35:03;;;;;;;8.13;5.28;;;;;;;18.43;100.00;95329.31;5087423;28;20051;-75
2022/08/27 08:37:29;;;;;;;7.40;5.22;;;;;;;18.37;100.00;95335.91;5088283;28;20445;-75
2022/08/27 08:39:54;;;;;;;9.60;5.05;;;;;;;18.37;100.00;95343.91;5087284;28;20047;-75
2022/08/27 08:42:26;;;;;;;8.15;5.10;;;;;;;18.41;100.00;95338.72;5088736;28;20047;-75
2022/08/27 08:44:52;;;;;;;11.57;5.43;;;;;;;18.41;100.00;95346.72;5085915;28;20062;-76
2022/08/27 08:47:29;;;;;;;8.10;5.13;;;;;;;18.43;100.00;95339.97;5081217;28;20504;-77
2022/08/27 08:50:10;;;;;;;10.20;5.13;;;;;;;18.45;100.00;95343.06;5075765;28;20047;-76
2022/08/27 08:52:42;;;;;;;10.43;5.53;;;;;;;18.59;100.00;95336.69;5088029;28;20052;-75
2022/08/27 08:55:17;;;;;;;8.38;5.63;;;;;;;18.73;100.00;95331.88;5088376;28;20040;-76
2022/08/27 08:57:52;;;;;;;7.80;5.40;;;;;;;18.87;100.00;95337.75;5088946;28;20044;-75
2022/08/27 09:00:18;;;;;;;9.00;5.20;;;;;;;19.00;100.00;95335.16;5087280;28;20044;-76
2022/08/27 09:02:53;;;;;;;9.32;5.57;;;;;;;18.90;100.00;95335.56;5090721;28;20043;-75
2022/08/27 09:05:20;;;;;;;9.05;5.75;;;;;;;18.95;100.00;95338.03;5088373;28;20036;-76
2022/08/27 09:08:04;;;;;;;10.88;6.00;;;;;;;19.14;100.00;95340.22;5082015;28;20049;-76
2022/08/27 09:10:42;;;;;;;9.15;6.35;;;;;;;19.24;100.00;95336.34;5083545;28;20036;-77
2022/08/27 09:13:20;;;;;;;11.73;6.05;;;;;;;19.44;100.00;95338.19;5080838;28;20078;-75
2022/08/27 09:15:46;;;;;;;11.32;5.97;;;;;;;19.57;100.00;95336.34;5088956;28;20039;-76
2022/08/27 09:18:14;;;;;;;8.38;5.40;;;;;;;19.65;100.00;95337.34;5089078;28;20035;-75
2022/08/27 09:20:44;;;;;;;9.43;5.85;;;;;;;19.58;100.00;95337.88;5079690;28;20075;-76
2022/08/27 09:23:15;;;;;;;10.40;6.13;;;;;;;19.71;100.00;95325.31;5088067;28;20094;-76
2022/08/27 09:25:43;;;;;;;9.35;5.40;;;;;;;19.90;100.00;95328.28;5089972;28;20036;-76
2022/08/27 09:31:14;;;;;;;9.10;6.13;;;;;;;20.06;100.00;95335.63;5087712;28;20105;-77
2022/08/27 09:33:39;;;;;;;9.07;5.75;;;;;;;19.90;100.00;95338.94;5082815;28;20047;-76
2022/08/27 09:36:09;;;;;;;10.13;6.30;;;;;;;19.78;100.00;95336.22;5088298;28;20032;-76
2022/08/27 09:38:35;;;;;;;11.15;6.10;;;;;;;19.75;100.00;95336.91;5077514;28;20043;-77
2022/08/27 09:41:16;;;;;;;7.60;5.72;;;;;;;20.21;100.00;95337.63;5091715;28;20039;-77
2022/08/27 09:43:42;;;;;;;11.43;6.70;;;;;;;19.98;100.00;95339.19;5080251;28;20508;-77
2022/08/27 09:46:20;;;;;;;9.35;5.90;;;;;;;19.88;100.00;95335.84;5086069;28;20043;-77
2022/08/27 09:48:46;;;;;;;10.65;6.10;;;;;;;20.48;100.00;95334.56;5088926;28;20093;-76
2022/08/27 09:51:16;;;;;;;11.30;6.32;;;;;;;20.64;100.00;95327.41;5089105;28;20037;-77
2022/08/27 09:53:54;;;;;;;10.63;6.15;;;;;;;20.74;100.00;95331.53;5089363;28;20035;-76
2022/08/27 09:56:32;;;;;;;8.68;5.70;;;;;;;20.66;100.00;95327.06;5097795;28;20040;-76
2022/08/27 09:59:05;;;;;;;7.93;6.05;;;;;;;20.50;100.00;95322.44;5080063;28;20068;-77
2022/08/27 10:01:34;;;;;;;9.13;5.90;;;;;;;20.46;100.00;95316.22;5087001;28;20170;-77
2022/08/27 10:04:02;;;;;;;10.40;6.20;;;;;;;20.27;100.00;95313.34;5103492;27;20093;-77
2022/08/27 10:06:30;;;;;;;10.63;6.03;;;;;;;20.72;100.00;95317.72;5099679;28;20686;-77
2022/08/27 10:09:01;;;;;;;9.68;6.00;;;;;;;20.89;100.00;95314.78;5089498;28;20040;-76
2022/08/27 10:11:33;;;;;;;8.82;5.93;;;;;;;21.27;100.00;95315.38;5096553;28;20070;-76
2022/08/27 10:14:06;;;;;;;9.40;6.05;;;;;;;21.59;100.00;95315.44;5094702;28;20641;-77
2022/08/27 10:16:39;;;;;;;9.50;6.07;;;;;;;22.00;100.00;95312.59;5090834;28;20043;-78
2022/08/27 10:19:10;;;;;;;11.30;5.27;;;;;;;22.05;100.00;95315.00;5089925;28;20044;-79
2022/08/27 10:21:49;;;;;;;8.93;5.18;;;;;;;22.01;100.00;95312.25;5089941;28;20050;-77
2022/08/27 10:24:45;;;;;;;8.98;5.28;;;;;;;21.63;100.00;95306.38;5090663;28;20040;-79
2022/08/27 10:27:46;;;;;;;11.85;5.82;;;;;;;21.31;100.00;95310.13;5095232;28;20039;-78
2022/08/27 10:30:19;;;;;;;16.52;9.98;;;;;;;21.15;100.00;95313.56;5094140;28;20036;-77
2022/08/27 10:33:05;;;;;;;10.07;5.88;;;;;;;21.06;100.00;95310.22;5087592;28;20478;-78
2022/08/27 10:35:56;;;;;;;13.38;5.80;;;;;;;21.00;100.00;95308.94;5092414;28;20043;-77
2022/08/27 10:38:32;;;;;;;14.07;5.78;;;;;;;21.22;100.00;95313.75;5092522;28;20040;-77
2022/08/27 10:41:21;;;;;;;12.70;5.30;;;;;;;21.26;100.00;95314.63;5091034;28;20046;-78
2022/08/27 10:44:21;;;;;;;8.38;5.53;;;;;;;21.08;100.00;95308.00;5086309;28;20131;-77
2022/08/27 10:47:09;;;;;;;8.73;5.32;;;;;;;21.06;100.00;95310.22;5087584;28;20055;-78
2022/08/27 10:49:53;;;;;;;8.30;5.63;;;;;;;21.12;100.00;95303.53;5083963;28;20514;-77
2022/08/27 10:52:21;;;;;;;;;;;;;;;21.07;100.00;95306.44;5089815;28;20059;-77
2022/08/27 10:54:50;;;;;;;7.57;4.65;;;;;;;21.29;100.00;95294.41;5093430;28;20039;-77
2022/08/27 10:57:26;;;;;;;8.93;4.60;;;;;;;21.60;100.00;95301.72;5090128;28;20055;-77
2022/08/27 11:00:10;;;;;;;8.45;5.15;;;;;;;22.03;100.00;95293.16;5083543;28;20498;-77
2022/08/27 11:02:59;;;;;;;6.65;4.88;;;;;;;22.54;100.00;95293.13;5087403;28;20048;-79
2022/08/27 11:05:38;;;;;;;10.05;5.72;;;;;;;23.15;100.00;95283.59;5091281;28;20033;-81
2022/08/27 11:08:12;;;;;;;7.47;4.72;;;;;;;23.31;96.72;95280.81;5088592;28;20039;-77
2022/08/27 11:10:46;;;;;;;9.60;5.40;;;;;;;23.56;94.12;95285.84;5088038;28;20032;-78
2022/08/27 11:13:20;;;;;;;8.90;5.10;;;;;;;22.48;98.29;95284.59;5083322;28;20412;-77
2022/08/27 11:15:50;;;;;;;9.27;4.78;;;;;;;22.74;100.00;95277.03;5084049;28;20040;-79
2022/08/27 11:18:19;;;;;;;8.30;5.53;;;;;;;24.32;89.79;95274.34;5083288;28;20618;-78
2022/08/27 11:20:58;;;;;;;11.23;5.53;;;;;;;23.33;93.92;95281.25;5081750;28;20067;-78
2022/08/27 11:23:36;;;;;;;10.35;5.72;;;;;;;22.85;100.00;95275.34;5099110;28;20048;-78
2022/08/27 11:26:04;;;;;;;8.52;4.93;;;;;;;23.13;100.00;95279.69;5089407;28;20054;-77
2022/08/27 11:28:56;;;;;;;8.50;5.03;;;;;;;23.02;93.63;95272.22;5087963;28;20040;-77
2022/08/27 11:31:36;;;;;;;7.55;4.95;;;;;;;23.03;100.00;95270.31;5088366;28;20058;-77
2022/08/27 11:34:23;;;;;;;13.80;4.93;;;;;;;23.60;95.60;95264.41;5091900;28;20028;-80
2022/08/27 11:37:16;;;;;;;7.07;5.07;;;;;;;24.32;87.43;95260.88;5089364;28;20048;-79
2022/08/27 11:39:51;;;;;;;11.10;5.10;;;;;;;23.70;96.96;95261.91;5086087;28;20051;-77